Time;durP1;ratioP1;P1;durP2;ratioP2;P2;SDS_P1;SDS_P2;PMS_P1;PMS_P2;Temp;Humidity;BMP_temperature;BMP_pressure;BME280_temperature;BME280_humidity;BME280_pressure;Samples;Min_cycle;Max_cycle;Signal;HPM_P1;HPM_P2
2022/01/06 00:01:35;;;;;;;106.30;94.80;;;4.90;99.90;;;;;;6089290;23;20448;-87
2022/01/06 00:04:09;;;;;;;109.50;97.43;;;4.90;99.90;;;;;;6079807;23;20170;-87
2022/01/06 00:06:41;;;;;;;128.10;115.75;;;4.90;99.90;;;;;;6098353;23;20147;-87
2022/01/06 00:09:18;;;;;;;107.90;89.70;;;4.90;99.90;;;;;;6096157;23;20196;-87
2022/01/06 00:12:10;;;;;;;133.70;120.95;;;4.90;99.90;;;;;;6098813;23;20460;-87
2022/01/06 00:24:22;;;;;;;98.07;85.60;;;4.90;99.90;;;;;;6123124;23;20246;-87
2022/01/06 00:27:14;;;;;;;;;;;;;;;;;;;;;
2022/01/06 00:30:03;;;;;;;103.13;85.07;;;4.80;99.90;;;;;;6067958;23;20230;-87
2022/01/06 00:32:33;;;;;;;97.60;79.72;;;4.80;99.90;;;;;;6094947;23;20152;-87
2022/01/06 00:35:28;;;;;;;106.10;94.57;;;4.80;99.90;;;;;;6096366;23;20265;-87
2022/01/06 00:38:11;;;;;;;107.20;96.05;;;4.80;99.90;;;;;;6009711;23;20171;-86
2022/01/06 00:40:49;;;;;;;99.07;87.10;;;4.70;99.90;;;;;;6003418;23;20256;-86
2022/01/06 00:51:16;;;;;;;105.93;92.93;;;4.70;99.90;;;;;;6183848;23;20244;-87
2022/01/06 00:54:20;;;;;;;98.05;85.25;;;4.70;99.90;;;;;;6122407;23;20194;-86
2022/01/06 00:57:21;;;;;;;284.98;266.42;;;4.70;99.90;;;;;;6018899;23;20148;-87
2022/01/06 00:59:53;;;;;;;95.47;84.32;;;4.70;99.90;;;;;;6034647;23;20153;-87
2022/01/06 01:02:37;;;;;;;128.13;115.80;;;4.70;99.90;;;;;;6034075;23;20148;-86
2022/01/06 01:05:42;;;;;;;108.82;94.78;;;4.70;99.90;;;;;;6033323;23;20284;-86
2022/01/06 01:08:34;;;;;;;109.47;97.45;;;4.70;99.90;;;;;;6078863;23;20645;-87
2022/01/06 01:11:38;;;;;;;104.38;93.03;;;4.70;99.90;;;;;;6055654;23;20188;-87
2022/01/06 01:14:57;;;;;;;99.90;85.07;;;4.60;99.90;;;;;;6122198;23;20166;-87
2022/01/06 01:20:45;;;;;;;109.38;98.20;;;4.60;99.90;;;;;;6118056;23;20214;-89
2022/01/06 01:24:00;;;;;;;106.30;92.85;;;4.60;99.90;;;;;;6125413;23;20284;-89
2022/01/06 01:27:36;;;;;;;;;;;;;;;;;;;;;
2022/01/06 01:39:40;;;;;;;;;;;;;;;;;;;;;
2022/01/06 01:42:46;;;;;;;108.53;97.00;;;4.60;99.90;;;;;;5976793;24;20581;-89
2022/01/06 01:46:07;;;;;;;;;;;;;;;;;;;;;
2022/01/06 01:53:12;;;;;;;88.05;56.58;;;4.50;99.90;;;;;;6033257;23;20275;-89
2022/01/06 01:59:19;;;;;;;161.10;147.70;;;4.40;99.90;;;;;;6034855;23;20153;-89
2022/01/06 02:02:15;;;;;;;97.35;73.03;;;4.40;99.90;;;;;;6037325;23;20207;-89
2022/01/06 02:09:01;;;;;;;;;;;;;;;;;;;;;
2022/01/06 02:12:21;;;;;;;;;;;;;;;;;;;;;
2022/01/06 02:14:57;;;;;;;93.00;65.82;;;4.40;99.90;;;;;;6096466;23;20305;-89
2022/01/06 02:17:58;;;;;;;91.57;75.32;;;4.40;99.90;;;;;;6096262;23;20542;-89
2022/01/06 02:24:45;;;;;;;97.80;65.50;;;4.40;99.90;;;;;;5949976;23;20345;-89
2022/01/06 02:31:11;;;;;;;;;;;;;;;;;;;;;
2022/01/06 02:36:35;;;;;;;;;;;;;;;;;;;;;
2022/01/06 02:39:17;;;;;;;95.70;77.28;;;4.30;99.90;;;;;;6064681;23;20295;-87
2022/01/06 02:47:49;;;;;;;;;;;;;;;;;;;;;
2022/01/06 02:51:00;;;;;;;98.95;75.93;;;4.40;99.90;;;;;;6123266;23;20230;-89
2022/01/06 02:57:28;;;;;;;;;;;;;;;;;;;;;
2022/01/06 03:00:39;;;;;;;91.75;67.97;;;4.40;99.90;;;;;;6086524;23;20250;-89
2022/01/06 03:06:00;;;;;;;94.03;74.72;;;4.40;99.90;;;;;;6121633;23;20198;-89
2022/01/06 03:12:17;;;;;;;96.07;67.78;;;4.40;99.90;;;;;;6111016;23;20154;-89
2022/01/06 03:15:16;;;;;;;;;;;;;;;;;;;;;
2022/01/06 03:21:53;;;;;;;100.65;73.93;;;4.40;99.90;;;;;;6048382;23;20153;-89
2022/01/06 03:24:56;;;;;;;102.20;79.60;;;4.40;99.90;;;;;;6095291;23;20179;-89
2022/01/06 03:27:52;;;;;;;102.03;74.07;;;4.40;99.90;;;;;;6079605;23;20154;-89
2022/01/06 03:30:58;;;;;;;94.80;73.65;;;4.40;99.90;;;;;;6034502;23;20541;-89
2022/01/06 03:33:56;;;;;;;92.40;62.00;;;4.40;99.90;;;;;;6045467;23;20152;-88
2022/01/06 03:52:09;;;;;;;93.82;70.95;;;4.30;99.90;;;;;;6152039;23;20240;-88
2022/01/06 03:58:19;;;;;;;102.30;86.05;;;4.30;99.90;;;;;;6180826;22;20146;-88
2022/01/06 04:01:58;;;;;;;139.00;125.88;;;4.30;99.90;;;;;;6152068;23;20138;-88
2022/01/06 04:04:52;;;;;;;89.10;58.25;;;4.30;99.90;;;;;;6153362;23;20208;-88
2022/01/06 04:07:57;;;;;;;91.05;63.75;;;4.30;99.90;;;;;;6214605;22;20146;-88
2022/01/06 04:10:37;;;;;;;93.10;56.50;;;4.30;99.90;;;;;;6164966;22;20145;-88
2022/01/06 04:16:57;;;;;;;99.07;65.55;;;4.30;99.90;;;;;;6117337;23;20213;-88
2022/01/06 04:20:20;;;;;;;88.82;56.45;;;4.30;99.90;;;;;;6122381;23;20232;-88
2022/01/06 04:26:20;;;;;;;102.55;68.80;;;4.30;99.90;;;;;;6093892;23;20186;-88
2022/01/06 04:30:41;;;;;;;91.05;57.05;;;4.30;99.90;;;;;;6081322;23;20205;-88
2022/01/06 04:33:39;;;;;;;;;;;;;;;;;;;;;
2022/01/06 04:36:48;;;;;;;94.47;57.72;;;4.30;99.90;;;;;;6070075;23;20172;-88
2022/01/06 04:40:03;;;;;;;;;;;;;;;;;;;;;
2022/01/06 04:42:30;;;;;;;104.95;57.13;;;4.20;99.90;;;;;;6038142;23;20232;-88
2022/01/06 04:46:05;;;;;;;;;;;;;;;;;;;;;
2022/01/06 04:49:06;;;;;;;92.95;51.53;;;4.30;99.90;;;;;;6095814;23;20218;-88
2022/01/06 04:52:14;;;;;;;98.72;63.25;;;4.20;99.90;;;;;;5919395;23;20152;-88
2022/01/06 04:54:49;;;;;;;92.35;63.90;;;4.20;99.90;;;;;;5893703;24;20653;-88
2022/01/06 04:57:51;;;;;;;99.53;68.95;;;4.20;99.90;;;;;;5894344;24;20495;-88
2022/01/06 05:01:03;;;;;;;;;;;;;;;;;;;;;
2022/01/06 05:07:10;;;;;;;89.35;54.97;;;4.20;99.90;;;;;;5977207;24;20161;-88
2022/01/06 05:10:40;;;;;;;91.47;55.92;;;4.30;99.90;;;;;;5948343;24;20233;-88
2022/01/06 05:21:31;;;;;;;98.65;59.10;;;4.20;99.90;;;;;;6117108;23;20528;-88
2022/01/06 05:24:44;;;;;;;91.75;54.38;;;4.20;99.90;;;;;;6079938;22;20202;-88
2022/01/06 05:27:59;;;;;;;95.07;50.72;;;4.20;99.90;;;;;;6032974;23;20167;-88
2022/01/06 05:30:42;;;;;;;93.47;55.08;;;4.30;99.90;;;;;;5925975;24;20238;-88
2022/01/06 05:33:14;;;;;;;87.15;49.25;;;4.30;99.90;;;;;;5980249;23;20159;-88
2022/01/06 05:36:23;;;;;;;93.53;52.53;;;4.30;99.90;;;;;;6006004;23;20280;-87
2022/01/06 05:39:45;;;;;;;95.35;46.35;;;4.30;99.90;;;;;;6004180;23;20156;-87
2022/01/06 05:46:06;;;;;;;83.97;42.33;;;4.30;99.90;;;;;;6078922;23;20344;-88
2022/01/06 05:48:45;;;;;;;;;;;;;;;;;;;;;
2022/01/06 05:51:38;;;;;;;88.90;58.30;;;4.20;99.90;;;;;;6122373;23;20489;-88
2022/01/06 06:07:42;;;;;;;87.55;42.00;;;4.10;99.90;;;;;;6062272;23;20214;-88
2022/01/06 06:13:35;;;;;;;86.22;45.47;;;4.00;99.90;;;;;;6124911;23;20154;-88
2022/01/06 06:17:02;;;;;;;86.28;47.00;;;4.00;99.90;;;;;;6122674;23;20151;-88
2022/01/06 06:19:44;;;;;;;82.63;46.08;;;4.10;99.90;;;;;;6068303;23;20146;-87
2022/01/06 06:22:30;;;;;;;89.38;47.10;;;4.00;99.90;;;;;;6124055;23;20176;-87
2022/01/06 06:25:24;;;;;;;90.72;46.25;;;4.10;99.90;;;;;;6122840;23;20485;-87
2022/01/06 06:27:50;;;;;;;86.07;44.53;;;4.20;99.90;;;;;;6092064;23;20155;-87
2022/01/06 06:30:43;;;;;;;88.70;46.93;;;4.10;99.90;;;;;;6113133;23;20147;-87
2022/01/06 06:36:21;;;;;;;87.43;47.67;;;4.10;99.90;;;;;;6122881;23;20142;-88
2022/01/06 06:43:01;;;;;;;81.18;36.50;;;4.10;99.90;;;;;;6062522;23;20235;-87
2022/01/06 06:46:05;;;;;;;84.43;40.25;;;4.10;99.90;;;;;;6038619;23;20180;-87
2022/01/06 06:51:43;;;;;;;82.25;35.88;;;4.00;99.90;;;;;;6116895;23;20147;-88
2022/01/06 06:54:33;;;;;;;;;;;;;;;;;;;;;
2022/01/06 06:57:00;;;;;;;85.25;42.80;;;4.00;99.90;;;;;;6122785;23;20559;-87
2022/01/06 07:03:22;;;;;;;83.72;39.65;;;4.00;99.90;;;;;;6006168;23;20198;-87
2022/01/06 07:06:38;;;;;;;;;;;;;;;;;;;;;
2022/01/06 07:09:26;;;;;;;84.43;35.90;;;4.00;99.90;;;;;;5967446;23;20643;-87
2022/01/06 07:16:05;;;;;;;81.20;34.70;;;3.90;99.90;;;;;;6094168;23;20217;-87
2022/01/06 07:25:51;;;;;;;278.17;260.13;;;3.90;99.90;;;;;;5951337;24;20414;-87
2022/01/06 07:32:08;;;;;;;91.28;53.03;;;3.80;99.90;;;;;;5979107;23;20153;-87
2022/01/06 07:35:22;;;;;;;84.85;43.53;;;3.90;99.90;;;;;;6039222;23;20678;-87
2022/01/06 07:38:33;;;;;;;89.90;47.35;;;3.80;99.90;;;;;;6038511;23;20152;-87
2022/01/06 07:47:04;;;;;;;92.22;49.47;;;3.80;99.90;;;;;;6151129;23;20170;-87
2022/01/06 07:53:37;;;;;;;88.95;42.30;;;3.80;99.90;;;;;;6154163;23;20495;-87
2022/01/06 08:19:11;;;;;;;89.50;48.08;;;3.90;99.90;;;;;;6097547;23;20237;-87
2022/01/06 08:28:23;;;;;;;93.38;42.90;;;3.90;99.90;;;;;;6120134;23;20198;-87
2022/01/06 08:31:45;;;;;;;85.57;39.10;;;3.90;99.90;;;;;;6123511;23;20170;-88
2022/01/06 08:44:51;;;;;;;86.00;43.78;;;4.00;99.90;;;;;;5976518;24;20222;-88
2022/01/06 08:55:07;;;;;;;84.72;41.33;;;4.10;99.90;;;;;;6036701;23;20747;-89
2022/01/06 08:57:40;;;;;;;85.18;45.80;;;4.20;99.90;;;;;;5953037;24;20162;-88
2022/01/06 09:20:33;;;;;;;;;;;;;;;;;;;;;
2022/01/06 09:23:55;;;;;;;;;;;;;;;;;;;;;
2022/01/06 10:03:12;;;;;;;95.55;50.20;;;4.70;99.90;;;;;;6122447;23;20158;-88
2022/01/06 10:27:56;;;;;;;88.80;54.00;;;5.10;99.90;;;;;;6118560;23;20202;-88
2022/01/06 11:14:45;;;;;;;;;;;;;;;;;;;;;
2022/01/06 11:21:24;;;;;;;106.90;91.65;;;6.30;99.90;;;;;;6111431;22;20215;-87
2022/01/06 11:28:37;;;;;;;;;;;;;;;;;;;;;
2022/01/06 11:49:39;;;;;;;91.18;48.42;;;6.80;99.90;;;;;;6076698;23;20201;-87
2022/01/06 11:53:09;;;;;;;88.82;48.58;;;6.80;99.90;;;;;;6007127;23;20164;-87
2022/01/06 11:56:23;;;;;;;95.30;38.53;;;6.70;99.90;;;;;;6067677;23;20759;-87
2022/01/06 11:59:09;;;;;;;89.65;36.70;;;6.60;99.90;;;;;;6066281;23;20175;-87
2022/01/06 12:02:32;;;;;;;93.60;55.55;;;6.50;99.90;;;;;;6066587;23;20509;-87
2022/01/06 12:05:21;;;;;;;88.93;45.05;;;6.30;99.90;;;;;;6103057;23;20206;-87
2022/01/06 12:08:08;;;;;;;;;;;;;;;;;;;;;
2022/01/06 12:11:26;;;;;;;96.55;60.63;;;6.50;99.90;;;;;;6062165;23;20223;-87
2022/01/06 12:14:19;;;;;;;99.90;66.80;;;6.30;99.90;;;;;;6061410;23;20207;-87
2022/01/06 12:17:14;;;;;;;97.00;57.88;;;6.20;99.90;;;;;;6049154;23;20650;-87
2022/01/06 12:20:22;;;;;;;94.63;48.60;;;6.20;99.90;;;;;;6096829;23;20151;-87
2022/01/06 12:22:49;;;;;;;89.82;37.70;;;6.10;99.90;;;;;;6072544;23;20229;-87
2022/01/06 12:25:32;;;;;;;83.25;32.33;;;6.20;99.90;;;;;;6085373;23;20183;-87
2022/01/06 12:32:16;;;;;;;84.13;25.13;;;6.20;99.90;;;;;;6122686;23;20527;-87
2022/01/06 13:07:55;;;;;;;;;;;;;;;;;;;;;
2022/01/06 13:26:53;;;;;;;91.78;36.97;;;6.60;99.90;;;;;;6017225;23;20253;-88
2022/01/06 13:30:57;;;;;;;85.30;30.60;;;6.60;99.90;;;;;;5982990;23;20623;-89
2022/01/06 14:26:19;;;;;;;86.72;18.02;;;5.90;99.90;;;;;;6126605;23;20205;-86
2022/01/06 14:45:54;;;;;;;;;;;;;;;;;;;;;
2022/01/06 14:49:08;;;;;;;83.05;32.65;;;5.90;99.90;;;;;;6128144;23;20225;-86
2022/01/06 14:52:43;;;;;;;;;;;;;;;;;;;;;
2022/01/06 14:59:52;;;;;;;76.95;16.00;;;5.80;99.90;;;;;;5868444;24;20190;-87
2022/01/06 15:49:37;;;;;;;90.07;55.20;;;5.10;99.90;;;;;;6127334;23;20198;-86
2022/01/06 15:52:30;;;;;;;92.47;60.35;;;5.10;99.90;;;;;;6099898;23;20212;-86
2022/01/06 15:55:27;;;;;;;91.03;54.55;;;5.00;99.90;;;;;;6102765;23;20166;-88
2022/01/06 15:58:13;;;;;;;89.25;55.92;;;5.00;99.90;;;;;;6055292;23;20197;-88
2022/01/06 16:05:13;;;;;;;95.43;55.30;;;4.90;99.90;;;;;;6087366;23;20302;-88
2022/01/06 16:08:30;;;;;;;;;;;;;;;;;;;;;
2022/01/06 16:11:37;;;;;;;92.65;49.95;;;4.80;99.90;;;;;;6122342;23;20221;-88
2022/01/06 16:18:31;;;;;;;;;;;;;;;;;;;;;
2022/01/06 16:38:10;;;;;;;81.45;22.58;;;4.40;99.90;;;;;;6014452;23;20168;-87
2022/01/06 16:44:56;;;;;;;75.15;20.42;;;4.30;99.90;;;;;;6002429;23;20179;-87
2022/01/06 16:50:52;;;;;;;86.10;21.90;;;4.30;99.90;;;;;;5980285;23;20176;-87
2022/01/06 16:53:44;;;;;;;88.88;22.73;;;4.20;99.90;;;;;;6022995;23;20170;-88
2022/01/06 16:59:20;;;;;;;88.60;25.02;;;4.20;99.90;;;;;;6130144;23;20163;-87
2022/01/06 17:03:24;;;;;;;83.13;22.52;;;4.20;99.90;;;;;;6102423;23;20170;-87
2022/01/06 17:06:28;;;;;;;84.28;21.25;;;4.20;99.90;;;;;;6010689;23;20256;-87
2022/01/06 17:09:39;;;;;;;86.07;25.60;;;4.10;99.90;;;;;;5947012;24;20212;-88
2022/01/06 17:12:28;;;;;;;90.80;23.95;;;4.10;99.90;;;;;;6036634;23;20179;-89
2022/01/06 17:22:18;;;;;;;91.00;22.88;;;4.10;99.90;;;;;;6015723;23;20168;-88
2022/01/06 17:28:36;;;;;;;94.07;31.33;;;4.10;99.90;;;;;;5933170;24;20169;-88
2022/01/06 17:34:32;;;;;;;83.00;26.50;;;4.00;99.90;;;;;;5913054;23;20203;-84
2022/01/06 17:37:00;;;;;;;85.93;38.92;;;4.00;99.90;;;;;;6161323;23;20420;-84
2022/01/06 17:39:26;;;;;;;84.60;25.92;;;3.80;99.90;;;;;;6164103;23;20145;-85
2022/01/06 17:41:53;;;;;;;80.65;25.08;;;3.60;99.90;;;;;;6163454;23;20142;-84
2022/01/06 17:44:19;;;;;;;87.75;29.13;;;3.60;99.90;;;;;;6164005;23;20162;-85
2022/01/06 17:46:48;;;;;;;87.80;27.60;;;3.50;99.90;;;;;;6163163;23;20600;-84
2022/01/06 17:49:14;;;;;;;90.93;30.70;;;3.40;78.10;;;;;;6163006;23;20584;-84
2022/01/06 17:51:40;;;;;;;84.47;31.77;;;3.30;99.90;;;;;;6137464;23;20205;-84
2022/01/06 17:54:06;;;;;;;85.95;32.38;;;3.30;99.90;;;;;;6136719;23;20397;-85
2022/01/06 17:56:33;;;;;;;85.85;39.88;;;3.20;99.90;;;;;;6137011;23;20154;-84
2022/01/06 17:59:00;;;;;;;87.25;36.15;;;3.20;99.90;;;;;;6163216;23;20160;-84
2022/01/06 18:01:34;;;;;;;88.78;35.55;;;3.20;99.90;;;;;;6162940;23;20142;-85
2022/01/06 18:04:03;;;;;;;84.78;34.50;;;3.20;99.90;;;;;;6163665;23;20164;-85
2022/01/06 18:06:37;;;;;;;93.85;29.92;;;3.20;99.90;;;;;;6136804;23;20150;-85
2022/01/06 18:11:34;;;;;;;88.20;31.75;;;3.00;99.90;;;;;;6162596;23;20169;-85
2022/01/06 18:14:09;;;;;;;83.78;32.72;;;3.00;99.90;;;;;;6136607;23;20172;-84
2022/01/06 18:16:39;;;;;;;98.63;40.83;;;3.00;99.90;;;;;;6162898;23;20121;-85
2022/01/06 18:19:05;;;;;;;121.90;70.25;;;2.90;99.90;;;;;;6162246;23;20161;-85
2022/01/06 18:21:34;;;;;;;115.25;67.35;;;3.00;99.90;;;;;;6135891;23;20154;-85
2022/01/06 18:24:00;;;;;;;124.63;78.97;;;2.90;99.90;;;;;;6137012;23;20559;-84
2022/01/06 18:26:26;;;;;;;114.45;94.93;;;2.80;99.90;;;;;;6162858;23;20141;-84
2022/01/06 18:28:52;;;;;;;124.75;111.28;;;2.90;99.90;;;;;;6137094;23;20232;-85
2022/01/06 18:31:19;;;;;;;107.20;94.03;;;3.00;99.90;;;;;;6136374;23;20201;-84
2022/01/06 18:33:46;;;;;;;117.68;105.43;;;3.00;99.90;;;;;;6136848;23;20162;-85
2022/01/06 18:36:15;;;;;;;119.95;107.47;;;3.00;99.90;;;;;;6164271;23;20138;-85
2022/01/06 18:38:46;;;;;;;104.95;93.57;;;3.10;99.90;;;;;;6163363;23;20145;-84
2022/01/06 18:41:13;;;;;;;101.93;87.90;;;3.10;99.90;;;;;;6163536;23;20135;-85
2022/01/06 18:43:38;;;;;;;144.40;131.13;;;3.10;99.90;;;;;;6163839;23;20161;-85
2022/01/06 18:46:05;;;;;;;121.07;108.90;;;3.00;99.90;;;;;;6165795;23;20166;-86
2022/01/06 18:48:33;;;;;;;109.80;97.18;;;3.10;99.90;;;;;;6136692;23;20715;-84
2022/01/06 18:51:00;;;;;;;104.70;91.60;;;3.20;99.90;;;;;;6163426;23;20142;-85
2022/01/06 18:53:26;;;;;;;108.18;93.90;;;3.20;99.90;;;;;;6162959;23;20145;-85
2022/01/06 18:55:52;;;;;;;115.13;102.88;;;3.10;99.90;;;;;;6162885;23;20150;-85
2022/01/06 18:58:18;;;;;;;153.67;117.93;;;3.20;99.90;;;;;;6162716;23;20182;-84
2022/01/06 19:00:44;;;;;;;187.68;105.78;;;3.20;99.90;;;;;;6163152;23;20366;-85
2022/01/06 19:03:10;;;;;;;112.03;77.05;;;3.30;99.90;;;;;;6137093;23;20146;-85
2022/01/06 19:05:37;;;;;;;103.87;80.40;;;3.30;99.90;;;;;;6136634;23;20176;-85
2022/01/06 19:08:04;;;;;;;142.40;80.72;;;3.30;99.90;;;;;;6136730;23;20385;-85
2022/01/06 19:10:30;;;;;;;129.63;83.03;;;3.20;99.90;;;;;;6164052;23;20165;-84
2022/01/06 19:12:58;;;;;;;137.85;79.93;;;3.20;99.90;;;;;;6136657;23;20178;-85
2022/01/06 19:15:27;;;;;;;144.30;78.40;;;3.10;99.90;;;;;;6137433;23;20624;-85
2022/01/06 19:17:53;;;;;;;127.38;79.50;;;3.10;99.90;;;;;;6163035;23;20189;-84
2022/01/06 19:20:22;;;;;;;112.90;73.43;;;3.10;99.90;;;;;;6163534;23;20134;-86
2022/01/06 19:22:48;;;;;;;92.60;51.45;;;3.10;99.90;;;;;;6136530;23;20185;-85
2022/01/06 19:25:14;;;;;;;95.17;61.43;;;3.00;99.90;;;;;;6161803;23;20177;-85
2022/01/06 19:27:41;;;;;;;98.63;64.93;;;3.00;99.90;;;;;;6163061;23;20202;-86
2022/01/06 19:30:08;;;;;;;92.30;61.13;;;3.00;99.90;;;;;;6136434;23;20216;-85
2022/01/06 19:32:35;;;;;;;90.63;58.17;;;2.90;99.90;;;;;;6136071;23;20516;-85
2022/01/06 19:35:01;;;;;;;92.95;58.75;;;3.00;99.90;;;;;;6161744;23;20161;-85
2022/01/06 19:37:26;;;;;;;93.30;50.43;;;2.90;99.90;;;;;;6136220;23;20150;-86
2022/01/06 19:39:53;;;;;;;94.90;61.73;;;3.00;99.90;;;;;;6162484;23;20145;-85
2022/01/06 19:42:22;;;;;;;92.85;57.45;;;2.90;99.90;;;;;;6135909;23;20158;-85
2022/01/06 19:44:48;;;;;;;88.15;55.72;;;2.90;99.90;;;;;;6162723;23;20162;-85
2022/01/06 19:47:14;;;;;;;117.13;103.47;;;2.90;99.90;;;;;;6161472;23;20153;-85
2022/01/06 19:49:40;;;;;;;119.35;107.10;;;2.80;99.90;;;;;;6135472;23;20149;-85
2022/01/06 19:52:06;;;;;;;94.70;68.03;;;2.90;99.90;;;;;;6162805;23;20169;-85
2022/01/06 19:54:33;;;;;;;99.57;78.15;;;2.90;99.90;;;;;;6161841;23;20164;-85
2022/01/06 19:56:58;;;;;;;93.90;67.97;;;2.90;99.90;;;;;;6161937;23;20638;-85
2022/01/06 19:59:27;;;;;;;90.40;61.80;;;3.00;99.90;;;;;;6162803;23;20138;-85
2022/01/06 20:01:57;;;;;;;90.60;55.67;;;2.90;99.90;;;;;;6136407;23;20741;-85
2022/01/06 20:04:24;;;;;;;95.43;62.67;;;3.00;99.90;;;;;;6162224;23;20220;-85
2022/01/06 20:06:51;;;;;;;97.43;58.40;;;3.10;99.90;;;;;;6136298;23;20158;-85
2022/01/06 20:09:17;;;;;;;86.00;51.83;;;3.10;99.90;;;;;;6135992;23;20153;-86
2022/01/06 20:11:43;;;;;;;89.27;59.10;;;3.10;99.90;;;;;;6162640;23;20176;-85
2022/01/06 20:14:08;;;;;;;88.73;52.87;;;3.00;99.90;;;;;;6161988;23;20448;-85
2022/01/06 20:16:34;;;;;;;98.53;54.10;;;3.00;99.90;;;;;;6162478;23;20201;-85
2022/01/06 20:19:00;;;;;;;91.37;57.33;;;3.00;99.90;;;;;;6161512;23;20473;-85
2022/01/06 20:21:26;;;;;;;95.80;57.57;;;3.00;99.90;;;;;;6135471;23;20388;-84
2022/01/06 20:23:51;;;;;;;90.27;57.10;;;2.90;99.90;;;;;;6161693;23;20198;-84
2022/01/06 20:26:17;;;;;;;89.73;57.20;;;2.90;99.90;;;;;;6162081;23;20371;-85
2022/01/06 20:28:45;;;;;;;94.43;55.57;;;2.80;99.90;;;;;;6163254;23;20223;-85
2022/01/06 20:31:11;;;;;;;94.93;55.85;;;2.90;99.90;;;;;;6136878;23;20836;-85
2022/01/06 20:33:44;;;;;;;86.57;48.60;;;2.90;99.90;;;;;;6161813;23;20169;-84
2022/01/06 20:36:11;;;;;;;87.60;50.90;;;2.90;99.90;;;;;;6136472;23;20749;-85
2022/01/06 20:38:37;;;;;;;95.95;59.75;;;2.90;99.90;;;;;;6162228;23;20230;-85
2022/01/06 20:41:02;;;;;;;96.23;67.83;;;2.90;99.90;;;;;;6135715;23;20464;-84
2022/01/06 20:43:28;;;;;;;93.67;62.67;;;3.00;99.90;;;;;;6162354;23;20444;-85
2022/01/06 20:45:54;;;;;;;90.87;50.87;;;3.00;99.90;;;;;;6161989;23;20146;-85
2022/01/06 20:51:16;;;;;;;89.00;51.83;;;3.00;99.90;;;;;;6162060;23;20181;-85
2022/01/06 20:53:48;;;;;;;102.05;70.53;;;3.00;99.90;;;;;;6136143;23;20615;-85
2022/01/06 20:56:19;;;;;;;100.82;78.13;;;2.90;99.90;;;;;;6162224;23;20123;-85
2022/01/06 20:58:45;;;;;;;93.35;57.30;;;3.00;99.90;;;;;;6161443;23;20149;-85
2022/01/06 21:01:11;;;;;;;93.75;60.78;;;3.00;99.90;;;;;;6161472;23;20141;-85
2022/01/06 21:03:37;;;;;;;104.23;84.00;;;3.00;99.90;;;;;;6135865;23;20180;-85
2022/01/06 21:06:06;;;;;;;94.55;66.05;;;2.90;99.90;;;;;;6161861;23;20584;-85
2022/01/06 21:08:33;;;;;;;90.95;62.72;;;3.00;99.90;;;;;;6136003;23;20215;-85
2022/01/06 21:10:59;;;;;;;90.38;49.85;;;3.00;99.90;;;;;;6161501;23;20149;-85
2022/01/06 21:13:40;;;;;;;90.60;53.20;;;3.10;99.90;;;;;;6136393;23;20146;-84
2022/01/06 21:16:07;;;;;;;88.65;44.28;;;3.10;99.90;;;;;;6164075;23;20122;-85
2022/01/06 21:18:33;;;;;;;86.53;46.20;;;3.20;99.90;;;;;;6137584;23;20663;-85
2022/01/06 21:20:59;;;;;;;81.80;40.65;;;3.20;99.90;;;;;;6137164;23;20146;-85
2022/01/06 21:23:25;;;;;;;85.70;48.47;;;3.20;99.90;;;;;;6137796;23;20265;-85
2022/01/06 21:25:51;;;;;;;83.78;38.05;;;3.20;99.90;;;;;;6137266;23;20654;-84
2022/01/06 21:28:20;;;;;;;83.50;40.70;;;3.20;99.90;;;;;;6137012;23;20153;-85
2022/01/06 21:30:45;;;;;;;84.85;42.70;;;3.30;99.90;;;;;;6137209;23;20382;-85
2022/01/06 21:33:13;;;;;;;81.07;32.97;;;3.20;99.90;;;;;;6163333;23;20253;-85
2022/01/06 21:36:03;;;;;;;82.00;40.50;;;3.20;99.90;;;;;;6137362;23;20964;-85
2022/01/06 21:38:31;;;;;;;86.25;38.15;;;3.10;99.90;;;;;;6163702;23;20123;-85
2022/01/06 21:41:04;;;;;;;85.45;30.90;;;3.20;99.90;;;;;;6163492;23;20523;-85
2022/01/06 21:43:33;;;;;;;80.93;21.00;;;3.20;99.90;;;;;;6163516;23;20125;-84
2022/01/06 21:46:11;;;;;;;82.20;20.77;;;3.20;99.90;;;;;;6163667;23;20157;-85
2022/01/06 21:48:40;;;;;;;77.90;21.40;;;3.10;99.90;;;;;;6137207;23;20495;-85
2022/01/06 21:51:15;;;;;;;76.68;22.27;;;3.10;99.90;;;;;;6138325;23;20145;-84
2022/01/06 21:53:53;;;;;;;76.55;19.88;;;3.10;99.90;;;;;;6137060;23;20166;-84
2022/01/06 21:57:08;;;;;;;79.22;27.55;;;3.10;99.90;;;;;;6164343;23;20126;-84
2022/01/06 22:00:07;;;;;;;77.00;19.25;;;3.10;99.90;;;;;;6162775;23;20153;-84
2022/01/06 22:02:43;;;;;;;78.63;25.15;;;3.10;99.90;;;;;;6125994;23;20554;-84
2022/01/06 22:05:13;;;;;;;84.22;34.35;;;3.00;99.90;;;;;;6137024;23;20170;-84
2022/01/06 22:07:42;;;;;;;86.05;34.85;;;3.00;99.90;;;;;;6137202;23;20150;-85
2022/01/06 22:10:10;;;;;;;81.85;31.08;;;3.10;99.90;;;;;;6164146;23;20153;-84
2022/01/06 22:12:37;;;;;;;80.60;32.78;;;3.10;99.90;;;;;;6137579;23;20181;-84
2022/01/06 22:15:07;;;;;;;78.03;25.98;;;3.10;99.90;;;;;;6137201;23;20165;-85
2022/01/06 22:17:42;;;;;;;78.78;30.00;;;3.20;99.90;;;;;;6163513;23;20152;-86
2022/01/06 22:20:12;;;;;;;81.85;31.60;;;3.10;99.90;;;;;;6110991;23;20177;-84
2022/01/06 22:22:44;;;;;;;82.55;23.25;;;3.10;99.90;;;;;;6133724;23;20600;-85
2022/01/06 22:25:11;;;;;;;83.88;23.27;;;3.20;99.90;;;;;;6133951;23;20169;-84
2022/01/06 22:27:37;;;;;;;83.15;28.35;;;3.10;99.90;;;;;;6133244;23;20143;-84
2022/01/06 22:30:06;;;;;;;78.38;23.95;;;3.10;99.90;;;;;;6133384;23;20149;-84
2022/01/06 22:32:32;;;;;;;82.22;22.65;;;3.10;99.90;;;;;;6133467;23;20170;-85
2022/01/06 22:35:00;;;;;;;77.00;21.13;;;3.10;99.90;;;;;;6107272;23;20174;-84
2022/01/06 22:37:27;;;;;;;78.25;20.63;;;3.20;99.90;;;;;;6133904;23;20146;-84
2022/01/06 22:39:53;;;;;;;79.38;20.15;;;3.20;99.90;;;;;;6108696;23;20492;-85
2022/01/06 22:42:21;;;;;;;89.15;21.70;;;3.10;99.90;;;;;;6108882;23;20157;-85
2022/01/06 22:44:48;;;;;;;76.50;19.38;;;3.10;99.90;;;;;;6108310;23;20229;-84
2022/01/06 22:47:23;;;;;;;74.78;17.50;;;3.10;99.90;;;;;;6133664;23;20147;-84
2022/01/06 22:49:49;;;;;;;81.68;22.05;;;3.10;99.90;;;;;;6108311;23;20150;-85
2022/01/06 22:52:21;;;;;;;80.63;25.60;;;3.10;99.90;;;;;;6133600;23;20230;-85
2022/01/06 22:54:56;;;;;;;79.72;20.40;;;3.00;99.90;;;;;;6106058;23;20403;-84
2022/01/06 22:57:22;;;;;;;76.57;18.58;;;3.10;99.90;;;;;;6106049;23;20174;-84
2022/01/06 22:59:50;;;;;;;85.33;17.90;;;3.20;99.90;;;;;;6133342;23;20146;-85
2022/01/06 23:02:17;;;;;;;76.00;17.10;;;3.20;99.90;;;;;;6107956;23;20386;-84
2022/01/06 23:04:42;;;;;;;81.47;19.42;;;3.20;99.90;;;;;;6133206;23;20162;-86
2022/01/06 23:07:11;;;;;;;78.30;19.17;;;3.00;99.90;;;;;;6107934;23;20229;-85
2022/01/06 23:09:40;;;;;;;80.35;32.55;;;3.00;99.90;;;;;;6133813;23;20371;-85
2022/01/06 23:12:14;;;;;;;82.05;35.47;;;3.00;99.90;;;;;;6131120;23;20174;-85
2022/01/06 23:14:40;;;;;;;83.32;36.40;;;3.00;99.90;;;;;;6133598;23;20153;-85
2022/01/06 23:17:07;;;;;;;80.63;31.10;;;3.00;99.90;;;;;;6133251;23;20225;-85
2022/01/06 23:19:33;;;;;;;84.22;33.70;;;3.00;99.90;;;;;;6107008;23;20163;-85
2022/01/06 23:21:59;;;;;;;82.47;33.60;;;3.00;99.90;;;;;;6133611;23;20143;-85
2022/01/06 23:24:27;;;;;;;84.03;35.60;;;3.00;99.90;;;;;;6106928;23;20217;-85
2022/01/06 23:26:53;;;;;;;81.30;29.98;;;3.00;99.90;;;;;;6133421;23;20197;-85
2022/01/06 23:29:19;;;;;;;82.57;32.53;;;3.00;99.90;;;;;;6133181;23;20171;-85
2022/01/06 23:31:46;;;;;;;82.83;33.67;;;3.00;99.90;;;;;;6132625;23;20194;-85
2022/01/06 23:34:17;;;;;;;88.75;34.95;;;3.00;99.90;;;;;;6132804;23;20768;-85
2022/01/06 23:36:46;;;;;;;81.78;32.55;;;3.00;99.90;;;;;;6133490;23;20560;-85
2022/01/06 23:39:11;;;;;;;87.10;38.78;;;3.10;99.90;;;;;;6133610;23;20149;-85
2022/01/06 23:41:41;;;;;;;82.90;36.90;;;3.10;99.90;;;;;;6132921;23;20651;-86
2022/01/06 23:44:07;;;;;;;86.07;40.63;;;3.10;99.90;;;;;;6132974;23;20176;-85
2022/01/06 23:46:33;;;;;;;83.20;37.58;;;3.10;99.90;;;;;;6106948;23;20150;-85
2022/01/06 23:49:00;;;;;;;89.90;45.45;;;3.00;99.90;;;;;;6132554;23;20170;-85
2022/01/06 23:51:27;;;;;;;90.68;57.20;;;2.90;99.90;;;;;;6132077;23;20186;-85
2022/01/06 23:53:56;;;;;;;99.38;56.92;;;2.90;99.90;;;;;;6106363;23;20173;-85
2022/01/06 23:56:26;;;;;;;94.72;60.72;;;2.80;99.90;;;;;;6132782;23;20185;-84
2022/01/06 23:58:52;;;;;;;98.10;72.03;;;2.80;99.90;;;;;;6106620;23;20146;-85
